createdAt,value
2024-05-09T00:00:36.522Z,59.07
2024-05-09T00:01:48.487Z,58.81
2024-05-09T00:02:52.467Z,58.91
2024-05-09T00:04:01.426Z,58.26
2024-05-09T00:05:24.714Z,58.27
2024-05-09T00:06:33.477Z,58.31
2024-05-09T00:07:42.400Z,58.86
2024-05-09T00:08:51.113Z,59.19
2024-05-09T00:09:54.583Z,58.16
2024-05-09T00:11:03.105Z,58.77
2024-05-09T00:12:09.249Z,58.39
2024-05-09T00:13:13.659Z,58.14
2024-05-09T00:14:22.107Z,58.70
2024-05-09T00:15:27.983Z,58.59
2024-05-09T00:16:36.929Z,58.95
2024-05-09T00:17:41.012Z,58.69
2024-05-09T00:18:49.747Z,58.24
2024-05-09T00:19:55.600Z,58.69
2024-05-09T00:21:04.469Z,58.99
2024-05-09T00:22:10.380Z,59.20
2024-05-09T00:23:22.233Z,58.59
2024-05-09T00:24:27.149Z,58.99
2024-05-09T00:25:36.075Z,58.94
2024-05-09T00:26:39.850Z,58.16
2024-05-09T00:27:45.905Z,58.87
2024-05-09T00:28:51.663Z,59.00
2024-05-09T00:30:01.384Z,58.96
2024-05-09T00:31:07.329Z,58.49
2024-05-09T00:32:13.934Z,58.23
2024-05-09T00:33:37.357Z,59.24
2024-05-09T00:34:46.139Z,58.39
2024-05-09T00:35:52.803Z,58.47
2024-05-09T00:37:01.164Z,58.98
2024-05-09T00:38:05.406Z,58.60
2024-05-09T00:39:14.164Z,58.68
2024-05-09T00:40:30.710Z,58.83
2024-05-09T00:41:47.689Z,58.55
2024-05-09T00:42:53.707Z,58.65
2024-05-09T00:44:00.197Z,59.34
2024-05-09T00:45:07.055Z,59.14
2024-05-09T00:46:13.941Z,59.38
2024-05-09T00:47:20.333Z,58.40
2024-05-09T00:48:26.972Z,59.34
2024-05-09T00:49:33.755Z,58.64
2024-05-09T00:50:44.402Z,58.52
2024-05-09T00:51:51.903Z,58.56
2024-05-09T00:53:01.309Z,59.20
2024-05-09T00:54:07.948Z,59.25
2024-05-09T00:55:19.940Z,59.18
2024-05-09T00:56:26.616Z,58.78
2024-05-09T00:57:35.306Z,58.92
2024-05-09T00:58:41.795Z,59.32
2024-05-09T00:59:51.256Z,59.39
2024-05-09T01:00:56.463Z,59.11
2024-05-09T01:02:05.544Z,58.53
2024-05-09T01:03:13.820Z,58.99
2024-05-09T01:04:22.464Z,58.71
2024-05-09T01:05:28.735Z,59.37
2024-05-09T01:06:37.470Z,58.49
2024-05-09T01:07:44.262Z,59.22
2024-05-09T01:08:52.942Z,58.26
2024-05-09T01:09:59.885Z,58.93
2024-05-09T01:11:09.530Z,58.89
2024-05-09T01:12:15.528Z,58.28
2024-05-09T01:13:24.452Z,58.79
2024-05-09T01:14:30.576Z,58.30
2024-05-09T01:15:39.419Z,58.34
2024-05-09T01:17:02.603Z,59.05
2024-05-09T01:18:13.824Z,58.44
2024-05-09T01:19:24.223Z,58.71
2024-05-09T01:20:40.977Z,59.12
2024-05-09T01:21:50.316Z,58.63
2024-05-09T01:23:00.987Z,59.09
2024-05-09T01:24:09.979Z,59.35
2024-05-09T01:25:18.746Z,58.44
2024-05-09T01:26:24.880Z,58.76
2024-05-09T01:27:35.510Z,58.79
2024-05-09T01:28:41.513Z,58.54
2024-05-09T01:29:47.458Z,59.43
2024-05-09T01:30:53.368Z,58.87
2024-05-09T01:32:04.802Z,58.60
2024-05-09T01:33:12.638Z,59.55
2024-05-09T01:34:19.296Z,58.57
2024-05-09T01:35:25.524Z,58.63
2024-05-09T01:36:35.366Z,58.49
2024-05-09T01:37:41.292Z,59.51
2024-05-09T01:38:49.863Z,59.21
2024-05-09T01:39:55.881Z,59.53
2024-05-09T01:41:04.431Z,59.25
2024-05-09T01:42:10.330Z,59.74
2024-05-09T01:43:18.986Z,59.24
2024-05-09T01:44:25.548Z,58.98
2024-05-09T01:45:31.900Z,59.70
2024-05-09T01:46:37.855Z,59.72
2024-05-09T01:47:46.560Z,58.70
2024-05-09T01:48:50.613Z,59.66
2024-05-09T01:50:00.202Z,59.39
2024-05-09T01:51:06.614Z,59.70
2024-05-09T01:52:15.489Z,59.72
2024-05-09T01:53:21.536Z,59.52
2024-05-09T01:54:27.916Z,58.77
2024-05-09T01:55:37.230Z,58.72
2024-05-09T01:56:43.399Z,58.82
2024-05-09T01:57:46.933Z,59.47
2024-05-09T01:58:55.389Z,59.05
2024-05-09T02:00:01.281Z,59.67
2024-05-09T02:01:09.796Z,58.92
2024-05-09T02:02:15.860Z,59.65
2024-05-09T02:03:22.766Z,59.67
2024-05-09T02:04:26.658Z,59.02
2024-05-09T02:05:35.543Z,59.79
2024-05-09T02:06:41.718Z,60.10
2024-05-09T02:07:50.469Z,59.30
2024-05-09T02:08:56.372Z,60.20
2024-05-09T02:10:10.835Z,60.17
2024-05-09T02:11:25.143Z,60.37
2024-05-09T02:12:34.536Z,60.07
2024-05-09T02:13:41.945Z,60.38
2024-05-09T02:14:48.001Z,59.52
2024-05-09T02:15:52.611Z,60.04
2024-05-09T02:17:01.756Z,60.49
2024-05-09T02:18:08.878Z,59.96
2024-05-09T02:19:18.156Z,60.51
2024-05-09T02:20:33.442Z,59.82
2024-05-09T02:21:42.690Z,60.14
2024-05-09T02:22:48.684Z,60.13
2024-05-09T02:23:58.524Z,60.02
2024-05-09T02:25:02.138Z,60.50
2024-05-09T02:26:10.545Z,59.72
2024-05-09T02:27:19.127Z,60.81
2024-05-09T02:28:27.815Z,60.33
2024-05-09T02:29:34.549Z,59.99
2024-05-09T02:30:42.361Z,60.47
2024-05-09T02:31:48.653Z,60.71
2024-05-09T02:32:57.599Z,60.72
2024-05-09T02:34:04.198Z,60.28
2024-05-09T02:35:10.394Z,59.90
2024-05-09T02:36:19.232Z,60.42
2024-05-09T02:37:25.164Z,60.80
2024-05-09T02:38:28.775Z,60.32
2024-05-09T02:39:35.369Z,60.92
2024-05-09T02:40:42.332Z,61.10
2024-05-09T02:41:51.161Z,61.04
2024-05-09T02:42:59.616Z,60.37
2024-05-09T02:44:05.927Z,60.63
2024-05-09T02:45:11.851Z,60.74
2024-05-09T02:46:18.146Z,61.41
2024-05-09T02:47:24.292Z,60.60
2024-05-09T02:48:32.962Z,60.65
2024-05-09T02:49:39.110Z,61.02
2024-05-09T02:50:45.350Z,61.13
2024-05-09T02:51:49.723Z,61.41
2024-05-09T02:52:56.107Z,61.51
2024-05-09T02:54:02.091Z,61.43
2024-05-09T02:55:07.986Z,60.65
2024-05-09T02:56:14.060Z,61.29
2024-05-09T02:57:22.693Z,61.70
2024-05-09T02:58:28.577Z,61.49
2024-05-09T02:59:34.294Z,60.89
2024-05-09T03:00:42.305Z,60.73
2024-05-09T03:01:51.943Z,61.21
2024-05-09T03:02:58.841Z,61.03
2024-05-09T03:04:05.105Z,61.66
2024-05-09T03:05:11.862Z,61.62
2024-05-09T03:06:20.359Z,60.92
2024-05-09T03:07:26.343Z,60.78
2024-05-09T03:08:32.858Z,61.66
2024-05-09T03:09:39.164Z,61.28
2024-05-09T03:10:47.879Z,61.73
2024-05-09T03:11:54.911Z,61.00
2024-05-09T03:13:01.728Z,61.68
2024-05-09T03:14:13.531Z,60.89
2024-05-09T03:15:19.365Z,61.15
2024-05-09T03:16:25.793Z,62.10
2024-05-09T03:17:32.442Z,61.35
2024-05-09T03:18:39.161Z,61.27
2024-05-09T03:19:45.456Z,61.57
2024-05-09T03:20:48.850Z,62.00
2024-05-09T03:21:55.539Z,61.57
2024-05-09T03:23:05.209Z,62.33
2024-05-09T03:24:12.610Z,61.83
2024-05-09T03:25:16.423Z,61.82
2024-05-09T03:26:22.323Z,62.33
2024-05-09T03:27:31.130Z,62.21
2024-05-09T03:28:34.565Z,61.34
2024-05-09T03:29:41.087Z,62.42
2024-05-09T03:30:45.495Z,62.22
2024-05-09T03:31:54.692Z,61.90
2024-05-09T03:32:58.257Z,61.71
2024-05-09T03:34:02.459Z,62.41
2024-05-09T03:35:12.091Z,62.34
2024-05-09T03:36:20.256Z,62.22
2024-05-09T03:37:27.461Z,62.16
2024-05-09T03:38:39.280Z,62.23
2024-05-09T03:39:43.121Z,62.40
2024-05-09T03:40:50.695Z,62.51
2024-05-09T03:41:57.496Z,62.13
2024-05-09T03:43:05.890Z,62.72
2024-05-09T03:44:11.964Z,62.32
2024-05-09T03:45:21.081Z,62.37
2024-05-09T03:46:26.863Z,62.82
2024-05-09T03:47:35.780Z,62.56
2024-05-09T03:48:42.365Z,61.96
2024-05-09T03:49:48.347Z,62.32
2024-05-09T03:50:52.278Z,62.91
2024-05-09T03:51:58.495Z,62.82
2024-05-09T03:53:05.502Z,63.00
2024-05-09T03:54:11.578Z,63.19
2024-05-09T03:55:17.614Z,62.88
2024-05-09T03:56:26.710Z,62.69
2024-05-09T03:57:30.368Z,62.13
2024-05-09T03:58:36.114Z,63.09
2024-05-09T03:59:39.578Z,62.41
2024-05-09T04:00:50.932Z,62.29
2024-05-09T04:01:57.179Z,63.01
2024-05-09T04:03:00.828Z,62.63
2024-05-09T04:04:09.163Z,62.65
2024-05-09T04:05:18.374Z,63.12
2024-05-09T04:06:25.005Z,62.44
2024-05-09T04:07:30.970Z,63.11
2024-05-09T04:08:39.613Z,63.03
2024-05-09T04:09:45.529Z,63.29
2024-05-09T04:10:49.252Z,62.51
2024-05-09T04:11:55.862Z,62.23
2024-05-09T04:13:04.613Z,62.93
2024-05-09T04:14:12.432Z,62.45
2024-05-09T04:15:20.639Z,63.03
2024-05-09T04:16:30.723Z,62.97
2024-05-09T04:17:34.580Z,62.25
2024-05-09T04:18:39.318Z,62.45
2024-05-09T04:19:45.824Z,62.64
2024-05-09T04:20:49.971Z,62.61
2024-05-09T04:21:56.054Z,62.58
2024-05-09T04:23:05.195Z,62.17
2024-05-09T04:24:10.025Z,62.52
2024-05-09T04:25:16.171Z,62.18
2024-05-09T04:26:25.391Z,62.91
2024-05-09T04:27:32.187Z,62.91
2024-05-09T04:28:41.654Z,62.31
2024-05-09T04:29:47.577Z,62.97
2024-05-09T04:30:57.367Z,63.22
2024-05-09T04:32:08.433Z,62.36
2024-05-09T04:33:14.177Z,62.64
2024-05-09T04:34:19.236Z,63.08
2024-05-09T04:35:25.726Z,62.63
2024-05-09T04:36:45.348Z,63.40
2024-05-09T04:37:49.826Z,63.44
2024-05-09T04:39:04.956Z,63.40
2024-05-09T04:40:24.324Z,63.34
2024-05-09T04:41:36.976Z,62.84
2024-05-09T04:42:44.412Z,63.80
2024-05-09T04:43:52.680Z,62.92
2024-05-09T04:44:59.434Z,62.78
2024-05-09T04:46:02.752Z,63.14
2024-05-09T04:47:14.249Z,63.45
2024-05-09T04:48:20.454Z,62.99
2024-05-09T04:49:26.811Z,63.45
2024-05-09T04:50:37.040Z,62.97
2024-05-09T04:51:44.738Z,63.51
2024-05-09T04:52:50.547Z,64.00
2024-05-09T04:53:56.858Z,63.04
2024-05-09T04:55:03.373Z,63.68
2024-05-09T04:56:09.474Z,63.77
2024-05-09T04:57:15.408Z,63.92
2024-05-09T04:58:24.145Z,63.75
2024-05-09T04:59:30.086Z,63.11
2024-05-09T05:00:37.329Z,64.18
2024-05-09T05:01:47.558Z,64.05
2024-05-09T05:02:56.174Z,63.61
2024-05-09T05:04:02.104Z,63.84
2024-05-09T05:05:09.381Z,63.61
2024-05-09T05:06:18.933Z,62.67
2024-05-09T05:07:24.930Z,63.36
2024-05-09T05:08:30.997Z,63.51
2024-05-09T05:09:37.024Z,63.49
2024-05-09T05:10:46.791Z,63.42
2024-05-09T05:11:53.583Z,62.53
2024-05-09T05:13:16.055Z,62.89
2024-05-09T05:14:21.766Z,62.72
2024-05-09T05:15:30.554Z,62.90
2024-05-09T05:16:36.578Z,62.47
2024-05-09T05:17:43.017Z,62.08
2024-05-09T05:18:54.439Z,61.17
2024-05-09T05:20:00.712Z,61.38
2024-05-09T05:21:07.052Z,60.86
2024-05-09T05:22:15.642Z,60.22
2024-05-09T05:23:23.012Z,60.07
2024-05-09T05:24:28.938Z,59.39
2024-05-09T05:25:37.595Z,59.58
2024-05-09T05:26:43.710Z,59.26
2024-05-09T05:27:49.913Z,58.77
2024-05-09T05:28:58.706Z,58.37
2024-05-09T05:30:07.426Z,58.34
2024-05-09T05:31:16.152Z,57.78
2024-05-09T05:32:22.527Z,57.63
2024-05-09T05:33:31.636Z,57.29
2024-05-09T05:34:40.460Z,57.06
2024-05-09T05:35:46.365Z,57.02
2024-05-09T05:36:55.044Z,56.30
2024-05-09T05:38:01.161Z,56.11
2024-05-09T05:39:07.214Z,56.07
2024-05-09T05:40:25.286Z,55.57
2024-05-09T05:41:39.069Z,55.67
2024-05-09T05:42:45.267Z,55.44
2024-05-09T05:43:53.670Z,54.57
2024-05-09T05:44:59.555Z,54.50
2024-05-09T05:46:05.993Z,54.47
2024-05-09T05:47:14.770Z,53.81
2024-05-09T05:48:20.833Z,54.11
2024-05-09T05:49:26.962Z,53.26
2024-05-09T05:50:39.031Z,53.36
2024-05-09T05:51:45.278Z,53.42
2024-05-09T05:52:51.020Z,52.76
2024-05-09T05:53:56.848Z,52.79
2024-05-09T05:55:05.214Z,52.42
2024-05-09T05:56:09.106Z,52.19
2024-05-09T05:57:15.788Z,52.14
2024-05-09T05:58:24.396Z,51.67
2024-05-09T05:59:30.386Z,51.90
2024-05-09T06:00:39.210Z,51.49
2024-05-09T06:01:44.078Z,50.98
2024-05-09T06:02:50.997Z,50.95
2024-05-09T06:03:54.433Z,50.46
2024-05-09T06:05:00.560Z,50.66
2024-05-09T06:06:12.626Z,50.49
2024-05-09T06:07:18.776Z,50.24
2024-05-09T06:08:22.650Z,49.79
2024-05-09T06:09:28.814Z,49.79
2024-05-09T06:10:38.754Z,49.45
2024-05-09T06:11:47.041Z,49.35
2024-05-09T06:12:52.778Z,49.27
2024-05-09T06:14:02.351Z,49.35
2024-05-09T06:15:08.826Z,49.22
2024-05-09T06:16:15.695Z,48.80
2024-05-09T06:17:24.876Z,48.76
2024-05-09T06:18:30.904Z,48.62
2024-05-09T06:19:37.454Z,48.46
2024-05-09T06:20:46.331Z,48.42
2024-05-09T06:21:52.663Z,48.26
2024-05-09T06:22:59.406Z,48.21
2024-05-09T06:24:06.737Z,47.98
2024-05-09T06:25:12.994Z,47.96
2024-05-09T06:26:18.945Z,47.98
2024-05-09T06:27:24.886Z,47.80
2024-05-09T06:28:33.268Z,47.95
2024-05-09T06:29:39.931Z,47.65
2024-05-09T06:30:46.357Z,47.38
2024-05-09T06:31:52.126Z,47.54
2024-05-09T06:33:01.098Z,46.81
2024-05-09T06:34:06.968Z,47.00
2024-05-09T06:35:13.120Z,46.81
2024-05-09T06:36:22.363Z,46.77
2024-05-09T06:37:30.928Z,46.58
2024-05-09T06:38:38.200Z,46.29
2024-05-09T06:39:49.144Z,46.42
2024-05-09T06:40:55.636Z,46.70
2024-05-09T06:42:00.355Z,46.52
2024-05-09T06:43:06.348Z,46.37
2024-05-09T06:44:13.285Z,46.62
2024-05-09T06:45:19.103Z,46.34
2024-05-09T06:46:22.747Z,45.98
2024-05-09T06:47:31.891Z,46.15
2024-05-09T06:48:37.906Z,46.07
2024-05-09T06:49:43.949Z,45.72
2024-05-09T06:50:47.835Z,45.19
2024-05-09T06:51:56.325Z,45.61
2024-05-09T06:53:05.997Z,45.43
2024-05-09T06:54:12.158Z,45.53
2024-05-09T06:55:17.880Z,45.58
2024-05-09T06:56:26.648Z,45.12
2024-05-09T06:57:32.766Z,45.75
2024-05-09T06:58:38.718Z,45.73
2024-05-09T06:59:44.712Z,45.77
2024-05-09T07:00:53.189Z,45.76
2024-05-09T07:01:57.036Z,45.79
2024-05-09T07:03:05.900Z,45.65
2024-05-09T07:04:12.674Z,45.89
2024-05-09T07:05:21.792Z,45.66
2024-05-09T07:06:28.038Z,46.06
2024-05-09T07:07:31.765Z,45.75
2024-05-09T07:08:41.458Z,45.76
2024-05-09T07:09:48.527Z,45.45
2024-05-09T07:10:52.435Z,46.31
2024-05-09T07:11:56.282Z,46.01
2024-05-09T07:13:05.000Z,46.13
2024-05-09T07:14:10.963Z,45.81
2024-05-09T07:15:17.574Z,45.55
2024-05-09T07:16:26.254Z,45.67
2024-05-09T07:17:30.079Z,45.71
2024-05-09T07:18:36.292Z,45.35
2024-05-09T07:19:42.560Z,45.36
2024-05-09T07:20:50.132Z,45.48
2024-05-09T07:21:56.730Z,44.89
2024-05-09T07:23:00.413Z,45.17
2024-05-09T07:24:12.027Z,45.60
2024-05-09T07:25:18.061Z,45.29
2024-05-09T07:26:24.250Z,45.12
2024-05-09T07:27:30.801Z,44.84
2024-05-09T07:28:34.652Z,44.88
2024-05-09T07:29:40.465Z,44.78
2024-05-09T07:30:49.301Z,44.85
2024-05-09T07:31:56.052Z,44.34
2024-05-09T07:33:03.118Z,44.60
2024-05-09T07:34:13.728Z,44.66
2024-05-09T07:35:19.772Z,44.31
2024-05-09T07:36:25.704Z,44.53
2024-05-09T07:37:34.406Z,44.07
2024-05-09T07:38:40.477Z,44.37
2024-05-09T07:39:49.501Z,43.94
2024-05-09T07:40:58.013Z,43.95
2024-05-09T07:42:01.816Z,44.03
2024-05-09T07:43:08.981Z,44.00
2024-05-09T07:44:17.722Z,43.63
2024-05-09T07:45:41.695Z,43.62
2024-05-09T07:48:13.640Z,43.98
2024-05-09T07:52:33.068Z,43.51
2024-05-09T07:53:37.785Z,43.36
2024-05-09T07:54:39.516Z,43.20
2024-05-09T07:55:51.079Z,43.20
2024-05-09T07:56:55.189Z,43.26
2024-05-09T07:58:01.551Z,43.32
2024-05-09T07:59:10.370Z,43.35
2024-05-09T08:00:23.547Z,43.27
2024-05-09T08:01:33.320Z,42.98
2024-05-09T08:02:39.187Z,43.06
2024-05-09T08:03:45.439Z,42.89
2024-05-09T08:04:49.508Z,42.73
2024-05-09T08:05:56.307Z,42.73
2024-05-09T08:07:03.235Z,42.46
2024-05-09T08:08:11.524Z,42.95
2024-05-09T08:09:21.028Z,42.43
2024-05-09T08:10:29.162Z,42.61
2024-05-09T08:11:38.977Z,42.12
2024-05-09T08:12:45.381Z,42.21
2024-05-09T08:13:51.497Z,42.01
2024-05-09T08:14:57.307Z,42.11
2024-05-09T08:16:05.829Z,42.40
2024-05-09T08:17:09.596Z,42.63
2024-05-09T08:18:15.950Z,42.05
2024-05-09T08:19:22.256Z,42.28
2024-05-09T08:20:35.044Z,42.43
2024-05-09T08:21:41.494Z,42.31
2024-05-09T08:22:47.849Z,42.37
2024-05-09T08:23:54.337Z,42.01
2024-05-09T08:24:58.314Z,42.06
2024-05-09T08:26:04.424Z,41.93
2024-05-09T08:27:13.447Z,42.21
2024-05-09T08:28:19.383Z,42.18
2024-05-09T08:29:25.719Z,42.30
2024-05-09T08:30:37.272Z,42.27
2024-05-09T08:31:42.041Z,42.39
2024-05-09T08:32:48.470Z,42.30
2024-05-09T08:33:57.945Z,42.62
2024-05-09T08:35:03.926Z,42.30
2024-05-09T08:36:09.811Z,42.51
2024-05-09T08:37:22.068Z,42.67
2024-05-09T08:38:33.093Z,42.69
2024-05-09T08:39:39.169Z,42.86
2024-05-09T08:40:43.094Z,42.69
2024-05-09T08:41:50.798Z,42.96
2024-05-09T08:43:04.055Z,42.85
2024-05-09T08:44:10.568Z,42.61
2024-05-09T08:45:16.600Z,42.65
2024-05-09T08:46:22.478Z,42.59
2024-05-09T08:47:34.429Z,42.61
2024-05-09T08:48:44.455Z,42.68
2024-05-09T08:49:58.608Z,42.82
2024-05-09T08:51:08.635Z,42.60
2024-05-09T08:52:14.640Z,42.61
2024-05-09T08:53:18.027Z,42.81
2024-05-09T08:54:26.887Z,42.75
2024-05-09T08:55:33.323Z,42.66
2024-05-09T08:56:40.266Z,42.92
2024-05-09T08:57:49.242Z,42.79
2024-05-09T08:59:02.091Z,42.96
2024-05-09T09:00:12.505Z,43.18
2024-05-09T09:01:24.201Z,43.23
2024-05-09T09:02:32.125Z,43.35
2024-05-09T09:03:39.226Z,43.18
2024-05-09T09:04:52.028Z,43.30
2024-05-09T09:06:02.936Z,43.53
2024-05-09T09:07:12.515Z,43.54
2024-05-09T09:08:19.603Z,43.48
2024-05-09T09:09:22.942Z,43.58
2024-05-09T09:10:32.445Z,43.44
2024-05-09T09:11:41.980Z,43.39
2024-05-09T09:12:58.051Z,43.12
2024-05-09T09:14:07.452Z,43.65
2024-05-09T09:15:15.900Z,43.56
2024-05-09T09:16:33.528Z,43.48
2024-05-09T09:17:37.764Z,43.61
2024-05-09T09:18:50.123Z,43.62
2024-05-09T09:19:56.755Z,43.76
2024-05-09T09:21:03.392Z,43.87
2024-05-09T09:22:12.260Z,43.32
2024-05-09T09:23:18.016Z,43.77
2024-05-09T09:24:23.966Z,43.51
2024-05-09T09:25:27.727Z,43.17
2024-05-09T09:26:36.237Z,43.10
2024-05-09T09:27:42.112Z,43.47
2024-05-09T09:28:48.407Z,43.30
2024-05-09T09:30:00.419Z,43.74
2024-05-09T09:31:07.055Z,43.67
2024-05-09T09:32:13.162Z,43.50
2024-05-09T09:33:19.573Z,43.61
2024-05-09T09:34:31.706Z,43.53
2024-05-09T09:35:39.944Z,43.74
2024-05-09T09:36:46.956Z,43.50
2024-05-09T09:37:52.418Z,43.63
2024-05-09T09:39:01.876Z,43.78
2024-05-09T09:40:12.916Z,43.83
2024-05-09T09:41:21.866Z,44.05
2024-05-09T09:42:34.625Z,44.05
2024-05-09T09:43:41.063Z,44.15
2024-05-09T09:44:57.996Z,44.27
2024-05-09T09:46:18.043Z,43.89
2024-05-09T09:47:25.275Z,44.09
2024-05-09T09:48:32.629Z,43.71
2024-05-09T09:49:42.825Z,44.12
2024-05-09T09:50:52.167Z,43.74
2024-05-09T09:51:58.323Z,43.86
2024-05-09T09:53:05.813Z,43.53
2024-05-09T09:54:16.518Z,43.39
2024-05-09T09:55:25.201Z,43.87
2024-05-09T09:56:33.531Z,44.00
2024-05-09T09:57:41.156Z,43.88
2024-05-09T09:58:51.724Z,43.81
2024-05-09T09:59:59.010Z,43.67
2024-05-09T10:01:05.683Z,43.68
2024-05-09T10:02:17.525Z,43.74
2024-05-09T10:03:23.941Z,43.81
2024-05-09T10:04:30.338Z,43.45
2024-05-09T10:05:38.292Z,44.17
2024-05-09T10:06:52.902Z,44.09
2024-05-09T10:08:01.231Z,44.13
2024-05-09T10:09:07.675Z,43.86
2024-05-09T10:10:31.737Z,43.81
2024-05-09T10:11:45.203Z,44.15
2024-05-09T10:12:59.290Z,44.11
2024-05-09T10:14:07.973Z,44.09
2024-05-09T10:15:13.758Z,44.31
2024-05-09T10:16:22.460Z,44.29
2024-05-09T10:17:40.648Z,44.25
2024-05-09T10:18:47.103Z,44.42
2024-05-09T10:20:14.397Z,44.12
2024-05-09T10:21:30.381Z,43.98
2024-05-09T10:22:36.539Z,43.94
2024-05-09T10:23:58.786Z,44.63
2024-05-09T10:25:06.199Z,44.43
2024-05-09T10:26:14.617Z,44.40
2024-05-09T10:27:27.686Z,44.57
2024-05-09T10:28:35.711Z,44.25
2024-05-09T10:29:56.037Z,44.68
2024-05-09T10:31:04.506Z,44.90
2024-05-09T10:32:17.485Z,44.58
2024-05-09T10:33:26.151Z,44.77
2024-05-09T10:34:41.191Z,44.63
2024-05-09T10:35:52.622Z,44.46
2024-05-09T10:37:04.201Z,44.78
2024-05-09T10:38:13.742Z,44.49
2024-05-09T10:39:21.090Z,44.51
2024-05-09T10:40:33.007Z,44.60
2024-05-09T10:41:39.689Z,44.52
2024-05-09T10:42:54.477Z,44.55
2024-05-09T10:44:00.348Z,44.41
2024-05-09T10:45:04.837Z,44.41
2024-05-09T10:46:11.880Z,44.86
2024-05-09T10:47:18.769Z,44.65
2024-05-09T10:48:28.159Z,44.63
2024-05-09T10:49:34.455Z,44.79
2024-05-09T10:50:43.957Z,45.04
2024-05-09T10:51:50.947Z,44.68
2024-05-09T10:52:59.753Z,45.10
2024-05-09T10:54:11.772Z,44.65
2024-05-09T10:55:17.896Z,44.63
2024-05-09T10:56:24.110Z,44.42
2024-05-09T10:57:43.517Z,44.90
2024-05-09T10:58:53.088Z,44.74
2024-05-09T11:00:00.909Z,45.00
2024-05-09T11:01:07.663Z,44.38
2024-05-09T11:02:16.859Z,44.88
2024-05-09T11:03:20.546Z,44.85
2024-05-09T11:04:29.802Z,44.87
2024-05-09T11:05:56.055Z,44.99
2024-05-09T11:07:02.833Z,44.99
2024-05-09T11:08:10.970Z,45.23
2024-05-09T11:09:16.922Z,45.25
2024-05-09T11:10:27.888Z,45.16
2024-05-09T11:11:39.620Z,45.13
2024-05-09T11:12:46.402Z,44.84
2024-05-09T11:13:55.265Z,44.73
2024-05-09T11:15:01.194Z,44.82
2024-05-09T11:16:17.022Z,44.90
2024-05-09T11:17:26.283Z,44.67
2024-05-09T11:18:36.719Z,44.37
2024-05-09T11:19:47.909Z,44.65
2024-05-09T11:20:57.459Z,44.75
2024-05-09T11:22:03.585Z,44.61
2024-05-09T11:23:09.504Z,44.95
2024-05-09T11:24:19.156Z,44.53
2024-05-09T11:25:25.122Z,44.35
2024-05-09T11:26:32.760Z,44.50
2024-05-09T11:27:41.463Z,44.73
2024-05-09T11:29:07.396Z,44.34
2024-05-09T11:30:26.795Z,44.33
2024-05-09T11:31:46.834Z,44.13
2024-05-09T11:32:56.907Z,44.39
2024-05-09T11:34:03.535Z,44.62
2024-05-09T11:35:18.258Z,44.83
2024-05-09T11:36:24.230Z,44.08
2024-05-09T11:37:32.677Z,44.48
2024-05-09T11:38:40.757Z,44.57
2024-05-09T11:39:49.825Z,44.19
2024-05-09T11:40:56.136Z,44.57
2024-05-09T11:42:02.098Z,44.21
2024-05-09T11:43:08.118Z,44.40
2024-05-09T11:44:17.216Z,44.41
2024-05-09T11:45:20.479Z,44.18
2024-05-09T11:46:24.217Z,44.52
2024-05-09T11:47:30.881Z,44.88
2024-05-09T11:48:39.748Z,44.59
2024-05-09T11:49:44.626Z,44.86
2024-05-09T11:50:54.616Z,44.61
2024-05-09T11:52:00.753Z,44.84
2024-05-09T11:53:06.913Z,44.83
2024-05-09T11:54:12.939Z,44.99
2024-05-09T11:55:27.435Z,44.72
2024-05-09T11:56:34.619Z,45.02
2024-05-09T11:57:39.285Z,44.85
2024-05-09T11:58:45.412Z,45.17
2024-05-09T11:59:54.530Z,44.77
2024-05-09T12:01:02.239Z,45.10
2024-05-09T12:02:08.367Z,44.75
2024-05-09T12:03:14.333Z,45.11
2024-05-09T12:04:21.005Z,45.01
2024-05-09T12:05:27.045Z,45.07
2024-05-09T12:06:36.036Z,44.97
2024-05-09T12:07:39.423Z,45.17
2024-05-09T12:08:48.524Z,44.93
2024-05-09T12:09:54.541Z,45.13
2024-05-09T12:11:00.946Z,44.91
2024-05-09T12:12:10.052Z,45.24
2024-05-09T12:13:15.850Z,45.23
2024-05-09T12:14:21.985Z,45.26
2024-05-09T12:15:27.861Z,45.22
2024-05-09T12:16:36.666Z,44.98
2024-05-09T12:17:42.623Z,45.20
2024-05-09T12:18:48.868Z,44.98
2024-05-09T12:19:54.703Z,44.83
2024-05-09T12:21:03.456Z,45.33
2024-05-09T12:22:12.238Z,45.32
2024-05-09T12:23:18.018Z,45.34
2024-05-09T12:24:29.190Z,45.00
2024-05-09T12:25:35.550Z,45.20
2024-05-09T12:26:39.234Z,45.44
2024-05-09T12:27:45.111Z,45.44
2024-05-09T12:28:51.138Z,45.21
2024-05-09T12:29:56.858Z,45.33
2024-05-09T12:31:02.620Z,44.97
2024-05-09T12:32:09.155Z,45.21
2024-05-09T12:33:20.116Z,45.07
2024-05-09T12:34:26.217Z,44.97
2024-05-09T12:35:29.703Z,45.04
2024-05-09T12:36:38.565Z,45.03
2024-05-09T12:37:47.394Z,45.23
2024-05-09T12:38:53.538Z,44.59
2024-05-09T12:39:59.517Z,45.23
2024-05-09T12:41:05.920Z,45.25
2024-05-09T12:42:16.605Z,45.27
2024-05-09T12:43:28.302Z,45.08
2024-05-09T12:44:37.120Z,44.92
2024-05-09T12:45:43.768Z,45.20
2024-05-09T12:46:50.031Z,45.05
2024-05-09T12:47:56.120Z,44.75
2024-05-09T12:49:02.261Z,45.12
2024-05-09T12:50:18.603Z,45.19
2024-05-09T12:51:31.663Z,45.10
2024-05-09T12:52:40.555Z,44.96
2024-05-09T12:53:49.197Z,44.57
2024-05-09T12:54:55.309Z,45.09
2024-05-09T12:56:03.018Z,44.48
2024-05-09T12:57:15.381Z,44.45
2024-05-09T12:58:22.767Z,44.77
2024-05-09T12:59:26.459Z,44.70
2024-05-09T13:00:33.764Z,44.57
2024-05-09T13:01:43.470Z,44.48
2024-05-09T13:02:49.647Z,45.01
2024-05-09T13:03:53.557Z,44.95
2024-05-09T13:04:59.937Z,44.63
2024-05-09T13:06:09.064Z,44.50
2024-05-09T13:07:15.531Z,44.71
2024-05-09T13:08:22.285Z,44.87
2024-05-09T13:09:31.266Z,44.37
2024-05-09T13:10:40.503Z,44.57
2024-05-09T13:11:46.493Z,44.75
2024-05-09T13:12:52.288Z,44.47
2024-05-09T13:13:59.089Z,44.75
2024-05-09T13:15:05.694Z,44.74
2024-05-09T13:16:12.018Z,44.68
2024-05-09T13:17:20.845Z,44.57
2024-05-09T13:18:27.912Z,44.55
2024-05-09T13:19:34.767Z,44.55
2024-05-09T13:20:40.882Z,44.63
2024-05-09T13:21:49.771Z,44.13
2024-05-09T13:22:55.799Z,44.62
2024-05-09T13:24:02.125Z,44.41
2024-05-09T13:25:11.216Z,44.46
2024-05-09T13:26:17.222Z,44.25
2024-05-09T13:27:22.891Z,44.12
2024-05-09T13:28:32.504Z,44.35
2024-05-09T13:29:40.303Z,44.11
2024-05-09T13:30:48.676Z,44.04
2024-05-09T13:31:57.532Z,44.08
2024-05-09T13:33:03.584Z,44.48
2024-05-09T13:34:09.768Z,44.09
2024-05-09T13:35:16.076Z,44.04
2024-05-09T13:36:24.816Z,44.08
2024-05-09T13:37:33.200Z,44.49
2024-05-09T13:38:39.267Z,44.27
2024-05-09T13:39:43.200Z,44.59
2024-05-09T13:40:54.597Z,44.40
2024-05-09T13:42:00.910Z,44.58
2024-05-09T13:43:07.367Z,44.29
2024-05-09T13:44:13.347Z,44.26
2024-05-09T13:45:21.740Z,44.35
2024-05-09T13:46:27.856Z,44.69
2024-05-09T13:47:34.331Z,44.76
2024-05-09T13:48:40.891Z,44.54
2024-05-09T13:49:47.349Z,44.55
2024-05-09T13:50:51.140Z,44.59
2024-05-09T13:51:56.902Z,44.72
2024-05-09T13:53:03.560Z,44.49
2024-05-09T13:54:12.333Z,44.17
2024-05-09T13:55:18.392Z,44.45
2024-05-09T13:56:27.576Z,44.67
2024-05-09T13:57:34.718Z,44.40
2024-05-09T13:58:41.051Z,44.32
2024-05-09T13:59:46.847Z,44.06
2024-05-09T14:00:52.902Z,44.61
2024-05-09T14:02:01.922Z,44.13
2024-05-09T14:03:08.430Z,44.16
2024-05-09T14:04:16.238Z,43.95
2024-05-09T14:05:23.281Z,44.59
2024-05-09T14:06:32.174Z,44.23
2024-05-09T14:07:36.002Z,44.08
2024-05-09T14:08:42.223Z,44.38
2024-05-09T14:09:48.798Z,44.50
2024-05-09T14:10:55.008Z,44.50
2024-05-09T14:12:03.552Z,44.32
2024-05-09T14:13:09.820Z,44.52
2024-05-09T14:14:15.959Z,44.56
2024-05-09T14:15:24.988Z,44.40
2024-05-09T14:16:28.973Z,44.20
2024-05-09T14:17:35.103Z,44.19
2024-05-09T14:18:44.282Z,44.44
2024-05-09T14:19:50.255Z,44.07
2024-05-09T14:21:13.995Z,44.08
2024-05-09T14:22:20.755Z,44.33
2024-05-09T14:23:27.129Z,44.02
2024-05-09T14:24:50.518Z,44.10
2024-05-09T14:25:59.145Z,44.10
2024-05-09T14:27:08.143Z,43.90
2024-05-09T14:28:14.256Z,44.02
2024-05-09T14:29:18.187Z,43.98
2024-05-09T14:30:34.533Z,44.40
2024-05-09T14:31:43.922Z,43.95
2024-05-09T14:32:50.476Z,44.00
2024-05-09T14:33:59.349Z,43.85
2024-05-09T14:35:06.189Z,43.72
2024-05-09T14:36:12.563Z,44.05
2024-05-09T14:37:21.541Z,43.83
2024-05-09T14:38:25.463Z,44.07
2024-05-09T14:39:31.788Z,44.13